sensor_id;sensor_type;location;lat;lon;timestamp;P1;P2;P0
65556;PMS3003;52200;53.490;14.376;2024-01-11T00:00:32;41.80;25.00;10.60
65556;PMS3003;52200;53.490;14.376;2024-01-11T00:02:58;40.00;23.00;11.50
65556;PMS3003;52200;53.490;14.376;2024-01-11T00:05:23;45.75;24.25;15.50
65556;PMS3003;52200;53.490;14.376;2024-01-11T00:07:49;41.25;18.50;11.25
65556;PMS3003;52200;53.490;14.376;2024-01-11T00:10:15;34.50;23.25;11.00
65556;PMS3003;52200;53.490;14.376;2024-01-11T00:12:41;35.60;22.80;11.00
65556;PMS3003;52200;53.490;14.376;2024-01-11T00:15:07;39.25;20.75;11.50
65556;PMS3003;52200;53.490;14.376;2024-01-11T00:17:32;37.25;20.50;11.50
65556;PMS3003;52200;53.490;14.376;2024-01-11T00:19:58;41.00;23.75;13.50
65556;PMS3003;52200;53.490;14.376;2024-01-11T00:22:23;40.25;25.75;10.75
65556;PMS3003;52200;53.490;14.376;2024-01-11T00:24:49;35.75;20.00;12.00
65556;PMS3003;52200;53.490;14.376;2024-01-11T00:27:14;37.25;22.50;13.00
65556;PMS3003;52200;53.490;14.376;2024-01-11T00:29:40;43.00;28.50;17.00
65556;PMS3003;52200;53.490;14.376;2024-01-11T00:32:05;38.00;25.25;15.50
65556;PMS3003;52200;53.490;14.376;2024-01-11T00:34:31;40.50;22.75;14.50
65556;PMS3003;52200;53.490;14.376;2024-01-11T00:36:56;43.25;28.25;16.75
65556;PMS3003;52200;53.490;14.376;2024-01-11T00:39:22;34.00;24.50;13.25
65556;PMS3003;52200;53.490;14.376;2024-01-11T00:41:47;46.75;31.50;16.50
65556;PMS3003;52200;53.490;14.376;2024-01-11T00:44:13;48.25;30.25;16.00
65556;PMS3003;52200;53.490;14.376;2024-01-11T00:46:39;44.50;29.25;15.00
65556;PMS3003;52200;53.490;14.376;2024-01-11T00:49:04;42.20;20.40;13.00
65556;PMS3003;52200;53.490;14.376;2024-01-11T00:51:30;39.75;23.25;12.50
65556;PMS3003;52200;53.490;14.376;2024-01-11T00:53:55;38.50;23.00;11.50
65556;PMS3003;52200;53.490;14.376;2024-01-11T00:56:21;45.75;26.75;15.50
65556;PMS3003;52200;53.490;14.376;2024-01-11T00:58:46;36.50;22.25;12.50
65556;PMS3003;52200;53.490;14.376;2024-01-11T01:01:12;39.00;23.00;11.75
65556;PMS3003;52200;53.490;14.376;2024-01-11T01:03:38;32.40;19.00;11.40
65556;PMS3003;52200;53.490;14.376;2024-01-11T01:06:04;35.80;21.00;11.80
65556;PMS3003;52200;53.490;14.376;2024-01-11T01:08:30;37.00;21.60;12.00
65556;PMS3003;52200;53.490;14.376;2024-01-11T01:10:56;39.50;21.25;12.75
65556;PMS3003;52200;53.490;14.376;2024-01-11T01:13:21;38.00;20.00;12.25
65556;PMS3003;52200;53.490;14.376;2024-01-11T01:15:47;29.00;20.50;13.00
65556;PMS3003;52200;53.490;14.376;2024-01-11T01:18:13;38.80;19.20;11.40
65556;PMS3003;52200;53.490;14.376;2024-01-11T01:20:39;37.75;22.50;12.00
65556;PMS3003;52200;53.490;14.376;2024-01-11T01:23:04;40.50;21.50;12.75
65556;PMS3003;52200;53.490;14.376;2024-01-11T01:25:29;38.25;21.00;11.00
65556;PMS3003;52200;53.490;14.376;2024-01-11T01:27:55;37.50;21.00;11.25
65556;PMS3003;52200;53.490;14.376;2024-01-11T01:30:21;34.40;18.40;9.00
65556;PMS3003;52200;53.490;14.376;2024-01-11T01:32:48;36.80;21.40;12.00
65556;PMS3003;52200;53.490;14.376;2024-01-11T01:35:14;32.25;18.25;9.75
65556;PMS3003;52200;53.490;14.376;2024-01-11T01:37:39;33.50;17.75;9.25
65556;PMS3003;52200;53.490;14.376;2024-01-11T01:40:05;30.25;16.50;9.00
65556;PMS3003;52200;53.490;14.376;2024-01-11T01:42:32;30.60;18.80;9.60
65556;PMS3003;52200;53.490;14.376;2024-01-11T01:44:58;30.60;19.60;10.00
65556;PMS3003;52200;53.490;14.376;2024-01-11T01:47:24;32.25;16.00;9.00
65556;PMS3003;52200;53.490;14.376;2024-01-11T01:49:50;37.40;17.40;11.20
65556;PMS3003;52200;53.490;14.376;2024-01-11T01:52:16;35.20;22.60;12.60
65556;PMS3003;52200;53.490;14.376;2024-01-11T01:54:42;34.40;18.60;10.00
65556;PMS3003;52200;53.490;14.376;2024-01-11T01:57:08;28.80;21.40;11.80
65556;PMS3003;52200;53.490;14.376;2024-01-11T01:59:36;38.80;22.20;11.60
65556;PMS3003;52200;53.490;14.376;2024-01-11T02:02:03;39.20;22.40;10.60
65556;PMS3003;52200;53.490;14.376;2024-01-11T02:04:30;33.00;23.40;12.00
65556;PMS3003;52200;53.490;14.376;2024-01-11T02:06:56;32.25;17.75;9.75
65556;PMS3003;52200;53.490;14.376;2024-01-11T02:09:23;37.60;23.00;11.20
65556;PMS3003;52200;53.490;14.376;2024-01-11T02:11:50;32.60;19.00;10.80
65556;PMS3003;52200;53.490;14.376;2024-01-11T02:14:18;42.20;25.20;12.00
65556;PMS3003;52200;53.490;14.376;2024-01-11T02:16:44;32.20;19.00;9.00
65556;PMS3003;52200;53.490;14.376;2024-01-11T02:19:10;27.25;16.00;10.00
65556;PMS3003;52200;53.490;14.376;2024-01-11T02:21:38;36.60;22.60;10.00
65556;PMS3003;52200;53.490;14.376;2024-01-11T02:24:07;33.80;20.20;12.20
65556;PMS3003;52200;53.490;14.376;2024-01-11T02:26:33;37.00;21.20;10.80
65556;PMS3003;52200;53.490;14.376;2024-01-11T02:28:59;36.40;21.20;11.40
65556;PMS3003;52200;53.490;14.376;2024-01-11T02:31:24;36.25;19.25;12.00
65556;PMS3003;52200;53.490;14.376;2024-01-11T02:33:54;35.40;18.40;11.60
65556;PMS3003;52200;53.490;14.376;2024-01-11T02:36:20;29.60;19.00;11.40
65556;PMS3003;52200;53.490;14.376;2024-01-11T02:38:46;36.60;21.60;11.40
65556;PMS3003;52200;53.490;14.376;2024-01-11T02:41:14;38.60;22.20;10.80
65556;PMS3003;52200;53.490;14.376;2024-01-11T02:43:46;39.20;22.20;10.00
65556;PMS3003;52200;53.490;14.376;2024-01-11T02:46:12;37.40;17.80;10.80
65556;PMS3003;52200;53.490;14.376;2024-01-11T02:48:39;35.00;23.60;12.80
65556;PMS3003;52200;53.490;14.376;2024-01-11T02:51:04;37.00;19.50;11.25
65556;PMS3003;52200;53.490;14.376;2024-01-11T02:53:29;34.50;21.50;12.00
65556;PMS3003;52200;53.490;14.376;2024-01-11T02:55:59;33.80;18.80;9.60
65556;PMS3003;52200;53.490;14.376;2024-01-11T02:58:25;38.60;20.20;10.00
65556;PMS3003;52200;53.490;14.376;2024-01-11T03:00:50;34.50;21.00;12.50
65556;PMS3003;52200;53.490;14.376;2024-01-11T03:03:15;37.75;25.50;13.25
65556;PMS3003;52200;53.490;14.376;2024-01-11T03:05:41;41.25;24.25;12.50
65556;PMS3003;52200;53.490;14.376;2024-01-11T03:08:06;34.00;16.25;11.00
65556;PMS3003;52200;53.490;14.376;2024-01-11T03:10:32;42.75;22.50;10.25
65556;PMS3003;52200;53.490;14.376;2024-01-11T03:12:57;34.50;19.25;12.75
65556;PMS3003;52200;53.490;14.376;2024-01-11T03:15:23;35.50;21.50;12.00
65556;PMS3003;52200;53.490;14.376;2024-01-11T03:17:48;40.75;23.50;13.00
65556;PMS3003;52200;53.490;14.376;2024-01-11T03:20:13;40.00;23.75;13.25
65556;PMS3003;52200;53.490;14.376;2024-01-11T03:22:44;43.25;28.00;13.25
65556;PMS3003;52200;53.490;14.376;2024-01-11T03:25:10;36.40;24.40;14.80
65556;PMS3003;52200;53.490;14.376;2024-01-11T03:27:36;38.00;24.00;12.25
65556;PMS3003;52200;53.490;14.376;2024-01-11T03:30:01;41.25;22.75;14.75
65556;PMS3003;52200;53.490;14.376;2024-01-11T03:32:27;34.25;23.25;13.00
65556;PMS3003;52200;53.490;14.376;2024-01-11T03:34:53;34.80;21.80;12.80
65556;PMS3003;52200;53.490;14.376;2024-01-11T03:37:18;25.75;16.25;10.50
65556;PMS3003;52200;53.490;14.376;2024-01-11T03:39:43;32.75;21.75;12.75
65556;PMS3003;52200;53.490;14.376;2024-01-11T03:42:09;34.50;19.25;10.00
65556;PMS3003;52200;53.490;14.376;2024-01-11T03:44:36;37.50;21.00;11.75
65556;PMS3003;52200;53.490;14.376;2024-01-11T03:47:01;36.60;22.00;11.20
65556;PMS3003;52200;53.490;14.376;2024-01-11T03:49:27;43.25;22.75;11.00
65556;PMS3003;52200;53.490;14.376;2024-01-11T03:51:52;30.50;17.75;10.75
65556;PMS3003;52200;53.490;14.376;2024-01-11T03:54:17;33.75;21.00;12.50
65556;PMS3003;52200;53.490;14.376;2024-01-11T03:56:43;33.75;20.00;10.75
65556;PMS3003;52200;53.490;14.376;2024-01-11T03:59:10;40.50;22.25;9.50
65556;PMS3003;52200;53.490;14.376;2024-01-11T04:01:39;32.00;17.60;8.80
65556;PMS3003;52200;53.490;14.376;2024-01-11T04:04:08;32.40;18.80;8.80
65556;PMS3003;52200;53.490;14.376;2024-01-11T04:06:34;37.00;20.40;9.60
65556;PMS3003;52200;53.490;14.376;2024-01-11T04:08:59;33.75;20.00;11.50
65556;PMS3003;52200;53.490;14.376;2024-01-11T04:11:28;34.75;21.75;11.25
65556;PMS3003;52200;53.490;14.376;2024-01-11T04:13:54;33.80;20.20;11.40
65556;PMS3003;52200;53.490;14.376;2024-01-11T04:16:19;32.50;18.00;9.75
65556;PMS3003;52200;53.490;14.376;2024-01-11T04:18:45;31.80;18.20;9.20
65556;PMS3003;52200;53.490;14.376;2024-01-11T04:21:23;30.25;18.25;10.00
65556;PMS3003;52200;53.490;14.376;2024-01-11T04:23:50;35.20;18.40;10.00
65556;PMS3003;52200;53.490;14.376;2024-01-11T04:26:16;31.40;18.40;11.60
65556;PMS3003;52200;53.490;14.376;2024-01-11T04:28:43;32.60;17.80;10.20
65556;PMS3003;52200;53.490;14.376;2024-01-11T04:31:09;41.00;22.40;15.60
65556;PMS3003;52200;53.490;14.376;2024-01-11T04:33:35;37.75;21.25;12.50
65556;PMS3003;52200;53.490;14.376;2024-01-11T04:36:00;36.25;24.00;14.50
65556;PMS3003;52200;53.490;14.376;2024-01-11T04:38:26;39.75;19.50;12.25
65556;PMS3003;52200;53.490;14.376;2024-01-11T04:40:51;40.50;22.50;12.25
65556;PMS3003;52200;53.490;14.376;2024-01-11T04:43:17;38.50;23.25;9.75
65556;PMS3003;52200;53.490;14.376;2024-01-11T04:45:42;34.25;20.25;11.50
65556;PMS3003;52200;53.490;14.376;2024-01-11T04:48:07;33.25;18.50;12.50
65556;PMS3003;52200;53.490;14.376;2024-01-11T04:50:33;40.00;22.75;12.50
65556;PMS3003;52200;53.490;14.376;2024-01-11T04:52:58;30.50;18.25;12.00
65556;PMS3003;52200;53.490;14.376;2024-01-11T04:55:24;33.75;20.75;11.50
65556;PMS3003;52200;53.490;14.376;2024-01-11T04:57:49;32.25;18.50;10.00
65556;PMS3003;52200;53.490;14.376;2024-01-11T05:00:14;33.25;20.75;10.00
65556;PMS3003;52200;53.490;14.376;2024-01-11T05:02:40;27.80;14.60;9.00
65556;PMS3003;52200;53.490;14.376;2024-01-11T05:05:06;31.25;19.75;12.00
65556;PMS3003;52200;53.490;14.376;2024-01-11T05:07:31;37.75;20.50;13.00
65556;PMS3003;52200;53.490;14.376;2024-01-11T05:09:56;38.75;21.00;10.00
65556;PMS3003;52200;53.490;14.376;2024-01-11T05:12:22;39.50;26.00;15.50
65556;PMS3003;52200;53.490;14.376;2024-01-11T05:14:47;32.50;20.00;12.00
65556;PMS3003;52200;53.490;14.376;2024-01-11T05:17:13;41.50;23.75;13.75
65556;PMS3003;52200;53.490;14.376;2024-01-11T05:19:38;39.25;22.75;16.25
65556;PMS3003;52200;53.490;14.376;2024-01-11T05:22:04;31.00;19.50;11.00
65556;PMS3003;52200;53.490;14.376;2024-01-11T05:24:29;31.75;18.25;10.00
65556;PMS3003;52200;53.490;14.376;2024-01-11T05:26:55;41.00;24.50;14.25
65556;PMS3003;52200;53.490;14.376;2024-01-11T05:29:20;36.25;21.25;12.75
65556;PMS3003;52200;53.490;14.376;2024-01-11T05:31:46;39.75;24.00;13.75
65556;PMS3003;52200;53.490;14.376;2024-01-11T05:34:11;46.75;26.75;15.50
65556;PMS3003;52200;53.490;14.376;2024-01-11T05:36:38;40.00;23.40;12.80
65556;PMS3003;52200;53.490;14.376;2024-01-11T05:39:03;45.25;24.50;14.75
65556;PMS3003;52200;53.490;14.376;2024-01-11T05:41:28;38.75;20.50;12.75
65556;PMS3003;52200;53.490;14.376;2024-01-11T05:43:54;41.00;24.50;13.75
65556;PMS3003;52200;53.490;14.376;2024-01-11T05:46:19;42.75;28.00;15.00
65556;PMS3003;52200;53.490;14.376;2024-01-11T05:48:45;45.25;24.25;15.00
65556;PMS3003;52200;53.490;14.376;2024-01-11T05:51:10;58.25;35.75;17.75
65556;PMS3003;52200;53.490;14.376;2024-01-11T05:53:36;53.75;37.25;19.00
65556;PMS3003;52200;53.490;14.376;2024-01-11T05:56:01;36.50;26.75;15.25
65556;PMS3003;52200;53.490;14.376;2024-01-11T05:58:28;54.80;32.00;18.20
65556;PMS3003;52200;53.490;14.376;2024-01-11T06:00:53;50.75;31.75;17.50
65556;PMS3003;52200;53.490;14.376;2024-01-11T06:03:20;43.40;26.00;15.60
65556;PMS3003;52200;53.490;14.376;2024-01-11T06:05:46;38.75;22.00;12.00
65556;PMS3003;52200;53.490;14.376;2024-01-11T06:08:11;42.50;28.25;17.00
65556;PMS3003;52200;53.490;14.376;2024-01-11T06:10:39;54.25;33.75;16.75
65556;PMS3003;52200;53.490;14.376;2024-01-11T06:13:05;51.40;27.40;16.00
65556;PMS3003;52200;53.490;14.376;2024-01-11T06:15:30;44.00;32.00;18.75
65556;PMS3003;52200;53.490;14.376;2024-01-11T06:17:55;51.25;32.50;16.25
65556;PMS3003;52200;53.490;14.376;2024-01-11T06:20:21;48.25;32.25;16.25
65556;PMS3003;52200;53.490;14.376;2024-01-11T06:22:46;51.75;29.25;18.50
65556;PMS3003;52200;53.490;14.376;2024-01-11T06:25:12;71.25;46.25;25.00
65556;PMS3003;52200;53.490;14.376;2024-01-11T06:27:37;48.25;30.50;20.25
65556;PMS3003;52200;53.490;14.376;2024-01-11T06:30:03;56.75;36.50;18.50
65556;PMS3003;52200;53.490;14.376;2024-01-11T06:32:29;53.00;34.40;21.00
65556;PMS3003;52200;53.490;14.376;2024-01-11T06:34:54;59.50;36.50;21.00
65556;PMS3003;52200;53.490;14.376;2024-01-11T06:37:20;45.75;32.50;15.25
65556;PMS3003;52200;53.490;14.376;2024-01-11T06:39:45;48.00;29.75;19.00
65556;PMS3003;52200;53.490;14.376;2024-01-11T06:42:11;55.25;29.00;16.00
65556;PMS3003;52200;53.490;14.376;2024-01-11T06:44:36;39.75;28.00;15.00
65556;PMS3003;52200;53.490;14.376;2024-01-11T06:47:02;50.25;29.25;18.75
65556;PMS3003;52200;53.490;14.376;2024-01-11T06:49:29;44.60;30.40;18.00
65556;PMS3003;52200;53.490;14.376;2024-01-11T06:51:54;42.25;30.00;17.75
65556;PMS3003;52200;53.490;14.376;2024-01-11T06:54:19;50.25;27.50;18.75
65556;PMS3003;52200;53.490;14.376;2024-01-11T06:56:45;40.25;29.50;17.75
65556;PMS3003;52200;53.490;14.376;2024-01-11T06:59:10;42.00;26.25;15.50
65556;PMS3003;52200;53.490;14.376;2024-01-11T07:01:36;42.75;28.00;15.25
65556;PMS3003;52200;53.490;14.376;2024-01-11T07:04:01;46.50;28.50;15.75
65556;PMS3003;52200;53.490;14.376;2024-01-11T07:06:27;44.00;30.50;17.75
65556;PMS3003;52200;53.490;14.376;2024-01-11T07:08:52;47.25;30.25;16.00
65556;PMS3003;52200;53.490;14.376;2024-01-11T07:11:18;44.25;31.25;15.75
65556;PMS3003;52200;53.490;14.376;2024-01-11T07:13:43;41.00;31.00;19.25
65556;PMS3003;52200;53.490;14.376;2024-01-11T07:16:09;45.00;31.00;18.50
65556;PMS3003;52200;53.490;14.376;2024-01-11T07:18:34;50.00;33.75;19.00
65556;PMS3003;52200;53.490;14.376;2024-01-11T07:21:00;46.75;32.75;16.50
65556;PMS3003;52200;53.490;14.376;2024-01-11T07:23:26;47.25;32.00;19.00
65556;PMS3003;52200;53.490;14.376;2024-01-11T07:25:52;50.60;30.20;16.40
65556;PMS3003;52200;53.490;14.376;2024-01-11T07:28:18;54.75;33.00;16.00
65556;PMS3003;52200;53.490;14.376;2024-01-11T07:30:44;49.00;30.00;15.60
65556;PMS3003;52200;53.490;14.376;2024-01-11T07:33:11;50.60;32.00;19.20
65556;PMS3003;52200;53.490;14.376;2024-01-11T07:35:36;50.00;33.50;18.75
65556;PMS3003;52200;53.490;14.376;2024-01-11T07:38:02;47.25;29.25;18.25
65556;PMS3003;52200;53.490;14.376;2024-01-11T07:40:27;46.00;32.00;17.00
65556;PMS3003;52200;53.490;14.376;2024-01-11T07:42:53;43.60;26.40;15.20
65556;PMS3003;52200;53.490;14.376;2024-01-11T07:45:19;48.50;30.00;18.00
65556;PMS3003;52200;53.490;14.376;2024-01-11T07:47:45;50.25;32.75;17.50
65556;PMS3003;52200;53.490;14.376;2024-01-11T07:50:10;51.00;26.50;15.75
65556;PMS3003;52200;53.490;14.376;2024-01-11T07:52:36;39.50;27.00;15.00
65556;PMS3003;52200;53.490;14.376;2024-01-11T07:55:02;47.00;28.00;15.25
65556;PMS3003;52200;53.490;14.376;2024-01-11T07:57:35;37.00;23.60;12.60
65556;PMS3003;52200;53.490;14.376;2024-01-11T08:00:01;48.00;29.60;15.20
65556;PMS3003;52200;53.490;14.376;2024-01-11T08:02:28;36.00;25.20;15.00
65556;PMS3003;52200;53.490;14.376;2024-01-11T08:04:55;50.75;27.25;14.75
65556;PMS3003;52200;53.490;14.376;2024-01-11T08:07:20;38.80;24.60;12.60
65556;PMS3003;52200;53.490;14.376;2024-01-11T08:09:48;43.80;23.20;14.20
65556;PMS3003;52200;53.490;14.376;2024-01-11T08:12:16;35.40;25.60;14.40
65556;PMS3003;52200;53.490;14.376;2024-01-11T08:14:42;40.40;21.80;12.00
65556;PMS3003;52200;53.490;14.376;2024-01-11T08:17:07;43.00;24.75;15.50
65556;PMS3003;52200;53.490;14.376;2024-01-11T08:19:33;37.80;23.60;14.80
65556;PMS3003;52200;53.490;14.376;2024-01-11T08:21:59;31.80;22.20;12.80
65556;PMS3003;52200;53.490;14.376;2024-01-11T08:24:25;36.00;21.00;12.50
65556;PMS3003;52200;53.490;14.376;2024-01-11T08:26:51;32.75;21.25;13.00
65556;PMS3003;52200;53.490;14.376;2024-01-11T08:29:16;35.00;22.00;12.40
65556;PMS3003;52200;53.490;14.376;2024-01-11T08:31:44;33.80;20.20;10.00
65556;PMS3003;52200;53.490;14.376;2024-01-11T08:34:10;38.00;23.80;13.00
65556;PMS3003;52200;53.490;14.376;2024-01-11T08:36:36;31.75;19.50;10.50
65556;PMS3003;52200;53.490;14.376;2024-01-11T08:39:03;34.60;19.20;13.00
65556;PMS3003;52200;53.490;14.376;2024-01-11T08:41:37;37.80;22.40;10.60
65556;PMS3003;52200;53.490;14.376;2024-01-11T08:44:03;31.25;21.25;11.75
65556;PMS3003;52200;53.490;14.376;2024-01-11T08:46:32;36.20;22.40;12.40
65556;PMS3003;52200;53.490;14.376;2024-01-11T08:48:59;37.60;17.40;9.80
65556;PMS3003;52200;53.490;14.376;2024-01-11T08:51:26;35.20;20.80;12.80
65556;PMS3003;52200;53.490;14.376;2024-01-11T08:53:52;31.75;16.50;8.00
65556;PMS3003;52200;53.490;14.376;2024-01-11T08:56:20;34.60;19.60;8.20
65556;PMS3003;52200;53.490;14.376;2024-01-11T08:58:46;29.80;19.00;10.20
65556;PMS3003;52200;53.490;14.376;2024-01-11T09:01:13;30.60;17.00;10.00
65556;PMS3003;52200;53.490;14.376;2024-01-11T09:03:39;35.80;20.40;9.80
65556;PMS3003;52200;53.490;14.376;2024-01-11T09:06:04;27.25;15.75;10.00
65556;PMS3003;52200;53.490;14.376;2024-01-11T09:08:31;34.00;17.20;8.40
65556;PMS3003;52200;53.490;14.376;2024-01-11T09:10:56;36.25;16.75;9.75
65556;PMS3003;52200;53.490;14.376;2024-01-11T09:13:25;30.60;21.20;9.60
65556;PMS3003;52200;53.490;14.376;2024-01-11T09:15:54;29.20;17.80;11.00
65556;PMS3003;52200;53.490;14.376;2024-01-11T09:18:20;30.20;16.80;8.00
65556;PMS3003;52200;53.490;14.376;2024-01-11T09:20:46;30.00;18.00;9.80
65556;PMS3003;52200;53.490;14.376;2024-01-11T09:23:12;30.80;17.40;10.20
65556;PMS3003;52200;53.490;14.376;2024-01-11T09:25:38;36.20;16.60;9.60
65556;PMS3003;52200;53.490;14.376;2024-01-11T09:28:04;28.80;17.60;9.40
65556;PMS3003;52200;53.490;14.376;2024-01-11T09:30:30;32.25;19.25;8.00
65556;PMS3003;52200;53.490;14.376;2024-01-11T09:32:55;26.00;15.75;7.50
65556;PMS3003;52200;53.490;14.376;2024-01-11T09:35:24;27.75;16.25;7.50
65556;PMS3003;52200;53.490;14.376;2024-01-11T09:37:49;24.80;14.20;6.60
65556;PMS3003;52200;53.490;14.376;2024-01-11T09:40:16;23.20;10.40;6.00
65556;PMS3003;52200;53.490;14.376;2024-01-11T09:42:43;24.40;12.20;5.80
65556;PMS3003;52200;53.490;14.376;2024-01-11T09:45:15;29.00;15.50;7.00
65556;PMS3003;52200;53.490;14.376;2024-01-11T09:47:42;26.40;13.40;7.00
65556;PMS3003;52200;53.490;14.376;2024-01-11T09:50:11;28.20;13.60;6.80
65556;PMS3003;52200;53.490;14.376;2024-01-11T09:52:42;27.60;15.60;7.00
65556;PMS3003;52200;53.490;14.376;2024-01-11T09:55:12;28.60;16.40;10.80
65556;PMS3003;52200;53.490;14.376;2024-01-11T09:57:38;30.60;16.20;8.20
65556;PMS3003;52200;53.490;14.376;2024-01-11T10:00:09;27.20;14.00;7.60
65556;PMS3003;52200;53.490;14.376;2024-01-11T10:02:35;28.60;17.00;10.00
65556;PMS3003;52200;53.490;14.376;2024-01-11T10:05:00;26.25;15.00;8.00
65556;PMS3003;52200;53.490;14.376;2024-01-11T10:07:26;26.75;13.00;7.25
65556;PMS3003;52200;53.490;14.376;2024-01-11T10:09:55;27.00;14.20;6.60
65556;PMS3003;52200;53.490;14.376;2024-01-11T10:12:23;25.80;14.00;6.60
65556;PMS3003;52200;53.490;14.376;2024-01-11T10:14:50;29.40;15.80;9.80
65556;PMS3003;52200;53.490;14.376;2024-01-11T10:17:17;28.80;16.20;8.00
65556;PMS3003;52200;53.490;14.376;2024-01-11T10:19:43;25.20;14.00;5.40
65556;PMS3003;52200;53.490;14.376;2024-01-11T10:22:08;26.50;16.00;7.00
65556;PMS3003;52200;53.490;14.376;2024-01-11T10:24:38;23.80;12.60;6.00
65556;PMS3003;52200;53.490;14.376;2024-01-11T10:27:04;25.20;13.60;8.00
65556;PMS3003;52200;53.490;14.376;2024-01-11T10:29:31;23.60;13.40;5.00
65556;PMS3003;52200;53.490;14.376;2024-01-11T10:31:57;23.80;12.60;5.00
65556;PMS3003;52200;53.490;14.376;2024-01-11T10:34:25;28.25;12.25;7.50
65556;PMS3003;52200;53.490;14.376;2024-01-11T10:36:51;27.40;10.00;4.40
65556;PMS3003;52200;53.490;14.376;2024-01-11T10:39:17;23.00;11.00;5.00
65556;PMS3003;52200;53.490;14.376;2024-01-11T10:41:47;24.80;13.00;5.00
65556;PMS3003;52200;53.490;14.376;2024-01-11T10:44:18;19.80;9.00;5.60
65556;PMS3003;52200;53.490;14.376;2024-01-11T10:46:50;21.20;13.00;6.60
65556;PMS3003;52200;53.490;14.376;2024-01-11T10:49:22;24.20;12.80;6.00
65556;PMS3003;52200;53.490;14.376;2024-01-11T10:52:02;23.60;12.80;7.00
65556;PMS3003;52200;53.490;14.376;2024-01-11T10:54:30;19.60;10.00;5.20
65556;PMS3003;52200;53.490;14.376;2024-01-11T10:56:59;25.40;13.20;5.00
65556;PMS3003;52200;53.490;14.376;2024-01-11T10:59:26;19.20;10.60;4.00
65556;PMS3003;52200;53.490;14.376;2024-01-11T11:01:55;22.40;11.00;4.60
65556;PMS3003;52200;53.490;14.376;2024-01-11T11:04:24;19.80;10.60;4.80
65556;PMS3003;52200;53.490;14.376;2024-01-11T11:06:56;23.40;12.00;5.20
65556;PMS3003;52200;53.490;14.376;2024-01-11T11:09:23;30.00;14.20;4.80
65556;PMS3003;52200;53.490;14.376;2024-01-11T11:11:50;22.40;13.20;7.40
65556;PMS3003;52200;53.490;14.376;2024-01-11T11:14:18;26.20;11.80;5.80
65556;PMS3003;52200;53.490;14.376;2024-01-11T11:16:45;34.40;18.00;8.20
65556;PMS3003;52200;53.490;14.376;2024-01-11T11:19:11;25.00;15.75;8.00
65556;PMS3003;52200;53.490;14.376;2024-01-11T11:21:43;28.80;17.00;8.00
65556;PMS3003;52200;53.490;14.376;2024-01-11T11:24:10;23.40;13.20;5.80
65556;PMS3003;52200;53.490;14.376;2024-01-11T11:26:36;20.40;10.00;6.60
65556;PMS3003;52200;53.490;14.376;2024-01-11T11:29:05;25.00;15.40;7.00
65556;PMS3003;52200;53.490;14.376;2024-01-11T11:31:44;20.00;11.40;5.00
65556;PMS3003;52200;53.490;14.376;2024-01-11T11:34:19;25.00;13.80;6.20
65556;PMS3003;52200;53.490;14.376;2024-01-11T11:36:46;22.00;13.40;7.00
65556;PMS3003;52200;53.490;14.376;2024-01-11T11:39:11;24.60;13.20;5.00
65556;PMS3003;52200;53.490;14.376;2024-01-11T11:41:38;26.80;12.80;6.60
65556;PMS3003;52200;53.490;14.376;2024-01-11T11:44:05;26.00;14.00;7.00
65556;PMS3003;52200;53.490;14.376;2024-01-11T11:46:34;26.40;16.20;8.00
65556;PMS3003;52200;53.490;14.376;2024-01-11T11:49:00;24.40;12.20;6.20
65556;PMS3003;52200;53.490;14.376;2024-01-11T11:51:25;33.00;15.25;8.00
65556;PMS3003;52200;53.490;14.376;2024-01-11T11:53:52;28.40;16.00;6.60
65556;PMS3003;52200;53.490;14.376;2024-01-11T11:56:19;21.50;11.25;5.50
65556;PMS3003;52200;53.490;14.376;2024-01-11T11:58:46;26.80;10.20;6.20
65556;PMS3003;52200;53.490;14.376;2024-01-11T12:01:13;28.20;15.60;7.40
65556;PMS3003;52200;53.490;14.376;2024-01-11T12:03:43;23.60;14.00;7.00
65556;PMS3003;52200;53.490;14.376;2024-01-11T12:06:15;24.20;14.60;7.40
65556;PMS3003;52200;53.490;14.376;2024-01-11T12:08:44;20.60;10.00;7.00
65556;PMS3003;52200;53.490;14.376;2024-01-11T12:11:14;21.40;11.80;4.80
65556;PMS3003;52200;53.490;14.376;2024-01-11T12:13:42;24.00;14.20;8.00
65556;PMS3003;52200;53.490;14.376;2024-01-11T12:16:09;20.00;10.20;4.80
65556;PMS3003;52200;53.490;14.376;2024-01-11T12:18:35;23.00;12.80;5.40
65556;PMS3003;52200;53.490;14.376;2024-01-11T12:21:00;18.00;8.75;4.00
65556;PMS3003;52200;53.490;14.376;2024-01-11T12:23:27;18.40;7.60;4.00
65556;PMS3003;52200;53.490;14.376;2024-01-11T12:26:00;18.80;9.80;5.00
65556;PMS3003;52200;53.490;14.376;2024-01-11T12:28:26;21.00;11.40;4.60
65556;PMS3003;52200;53.490;14.376;2024-01-11T12:30:52;18.25;10.00;5.00
65556;PMS3003;52200;53.490;14.376;2024-01-11T12:33:17;20.00;8.25;4.75
65556;PMS3003;52200;53.490;14.376;2024-01-11T12:35:44;20.80;11.40;4.80
65556;PMS3003;52200;53.490;14.376;2024-01-11T12:38:10;19.60;8.00;5.00
65556;PMS3003;52200;53.490;14.376;2024-01-11T12:40:36;21.00;10.25;4.25
65556;PMS3003;52200;53.490;14.376;2024-01-11T12:43:05;21.20;10.40;4.40
65556;PMS3003;52200;53.490;14.376;2024-01-11T12:45:32;19.40;9.20;4.80
65556;PMS3003;52200;53.490;14.376;2024-01-11T12:47:58;18.50;8.00;4.00
65556;PMS3003;52200;53.490;14.376;2024-01-11T12:50:28;19.60;9.20;4.00
65556;PMS3003;52200;53.490;14.376;2024-01-11T12:53:04;22.20;10.40;4.80
65556;PMS3003;52200;53.490;14.376;2024-01-11T12:55:31;28.20;13.40;7.00
65556;PMS3003;52200;53.490;14.376;2024-01-11T12:58:06;19.00;10.20;4.00
65556;PMS3003;52200;53.490;14.376;2024-01-11T13:00:32;21.00;10.80;4.20
65556;PMS3003;52200;53.490;14.376;2024-01-11T13:02:58;20.75;10.50;5.50
65556;PMS3003;52200;53.490;14.376;2024-01-11T13:05:24;20.80;9.00;4.80
65556;PMS3003;52200;53.490;14.376;2024-01-11T13:07:50;17.20;8.20;4.00
65556;PMS3003;52200;53.490;14.376;2024-01-11T13:10:16;16.75;7.00;4.00
65556;PMS3003;52200;53.490;14.376;2024-01-11T13:12:42;15.40;6.20;2.00
65556;PMS3003;52200;53.490;14.376;2024-01-11T13:15:07;17.00;7.00;4.00
65556;PMS3003;52200;53.490;14.376;2024-01-11T13:17:33;14.00;5.50;2.00
65556;PMS3003;52200;53.490;14.376;2024-01-11T13:19:59;15.25;8.00;2.50
65556;PMS3003;52200;53.490;14.376;2024-01-11T13:22:24;17.75;8.00;4.00
65556;PMS3003;52200;53.490;14.376;2024-01-11T13:24:50;20.00;8.75;5.00
65556;PMS3003;52200;53.490;14.376;2024-01-11T13:27:15;16.75;8.00;2.50
65556;PMS3003;52200;53.490;14.376;2024-01-11T13:29:41;15.75;7.50;2.50
65556;PMS3003;52200;53.490;14.376;2024-01-11T13:32:06;22.50;8.75;4.25
65556;PMS3003;52200;53.490;14.376;2024-01-11T13:34:32;18.00;8.00;3.00